Leck Kill, Pennsylvania
Current Conditions -  °F | °C
As of 3:53 PM on Friday 28 Nov 2014 (Local Time) from KSEG Reporting Station
Clear Clear  
Wind Chill: 27°   Ceiling: Unl
Heat Index: 32°   Visibility: 10mi
Dew Point: 14°   Wind: 5mph
Humidity: 47%   Direction: 300°WNW
Pressure: 30.22"   Gusts: NA
Location:  40.72°N, 76.63°W
Report Text: KSEG 282053Z AUTO 30004KT 10SM CLR 00/M10 A3022 RMK AO2 SLP239 T00001100 56004
Loading
Personal Weather Stations






























Interactive Weather Map New forecast layout! Learn more

10-Day Weather Forecast

Advertisements
Track Severe Weather on mobile